Time;durP1;ratioP1;P1;durP2;ratioP2;P2;SDS_P1;SDS_P2;PMS_P1;PMS_P2;Temp;Humidity;BMP_temperature;BMP_pressure;BME280_temperature;BME280_humidity;BME280_pressure;Samples;Min_cycle;Max_cycle;Signal;HPM_P1;HPM_P2
2021/06/11 00:00:48;;;;;;;0.22;0.20;;;17.20;99.90;;;;;;5090178;28;20192;-71
2021/06/11 00:03:15;;;;;;;0.15;0.15;;;17.00;99.90;;;;;;5089351;28;20156;-71
2021/06/11 00:05:41;;;;;;;0.98;0.35;;;17.00;99.90;;;;;;5087686;28;20164;-71
2021/06/11 00:08:07;;;;;;;0.10;0.10;;;16.90;99.90;;;;;;5088935;28;20160;-71
2021/06/11 00:10:34;;;;;;;0.15;0.15;;;17.00;99.90;;;;;;5089896;28;20164;-71
2021/06/11 00:13:00;;;;;;;0.10;0.10;;;17.30;99.90;;;;;;5089929;28;20194;-71
2021/06/11 00:15:27;;;;;;;1.20;1.10;;;17.50;99.90;;;;;;5071950;28;20227;-71
2021/06/11 00:17:54;;;;;;;0.30;0.30;;;17.60;99.90;;;;;;5090084;28;20156;-70
2021/06/11 00:20:21;;;;;;;0.88;0.40;;;17.80;99.90;;;;;;5090029;28;20528;-71
2021/06/11 00:22:48;;;;;;;0.85;0.57;;;17.90;99.90;;;;;;5071931;28;20203;-71
2021/06/11 00:25:18;;;;;;;0.45;0.45;;;18.00;99.90;;;;;;5089891;28;20168;-70
2021/06/11 00:27:44;;;;;;;0.10;0.10;;;17.90;99.90;;;;;;5089849;28;20205;-70
2021/06/11 00:30:11;;;;;;;0.40;0.40;;;18.00;99.90;;;;;;5089851;28;20184;-71
2021/06/11 00:32:39;;;;;;;0.20;0.20;;;18.00;99.90;;;;;;5089641;28;20206;-71
2021/06/11 00:35:08;;;;;;;0.38;0.38;;;18.00;99.90;;;;;;5089739;28;20159;-71
2021/06/11 00:37:35;;;;;;;0.10;0.10;;;18.10;99.90;;;;;;5089734;28;20197;-72
2021/06/11 00:40:03;;;;;;;0.10;0.10;;;18.00;99.90;;;;;;5071587;28;20641;-72
2021/06/11 00:42:29;;;;;;;0.10;0.10;;;17.90;99.90;;;;;;5089448;28;20219;-72
2021/06/11 00:44:55;;;;;;;0.00;0.00;;;17.90;99.90;;;;;;5089605;28;20152;-72
2021/06/11 00:47:21;;;;;;;0.25;0.17;;;17.80;99.90;;;;;;5089667;28;20183;-72
2021/06/11 00:49:48;;;;;;;0.08;0.08;;;17.70;99.90;;;;;;5071464;28;20213;-72
2021/06/11 00:52:16;;;;;;;0.20;0.20;;;17.60;99.90;;;;;;5089434;28;20194;-72
2021/06/11 00:54:42;;;;;;;0.20;0.20;;;17.60;99.90;;;;;;5071487;28;20175;-72
2021/06/11 00:57:08;;;;;;;0.25;0.25;;;17.50;99.90;;;;;;5070936;28;20174;-72
2021/06/11 00:59:35;;;;;;;3.03;0.43;;;17.60;99.90;;;;;;5089125;28;20609;-72
2021/06/11 01:02:01;;;;;;;0.30;0.30;;;17.50;99.90;;;;;;5071370;28;20195;-72
2021/06/11 01:04:27;;;;;;;0.10;0.10;;;17.50;99.90;;;;;;5089343;28;20156;-72
2021/06/11 01:06:53;;;;;;;0.03;0.03;;;17.40;99.90;;;;;;5089428;28;20853;-72
2021/06/11 01:09:19;;;;;;;0.38;0.38;;;17.40;99.90;;;;;;5089273;28;20254;-72
2021/06/11 01:11:46;;;;;;;0.10;0.10;;;17.30;99.90;;;;;;5089355;28;20195;-72
2021/06/11 01:14:12;;;;;;;0.10;0.10;;;17.40;99.90;;;;;;5089226;28;20192;-71
2021/06/11 01:16:39;;;;;;;0.10;0.10;;;17.30;99.90;;;;;;5089248;28;20182;-71
2021/06/11 01:19:07;;;;;;;0.32;0.32;;;17.30;99.90;;;;;;5089196;28;20647;-71
2021/06/11 01:21:37;;;;;;;0.20;0.20;;;17.20;99.90;;;;;;5071020;28;20207;-71
2021/06/11 01:24:18;;;;;;;0.32;0.32;;;17.10;99.90;;;;;;5089275;28;20624;-71
2021/06/11 01:26:50;;;;;;;0.10;0.10;;;17.10;99.90;;;;;;5089232;28;20167;-71
2021/06/11 01:29:29;;;;;;;0.52;0.45;;;17.10;99.90;;;;;;5089079;28;20152;-71
2021/06/11 01:32:01;;;;;;;2.00;0.22;;;17.00;99.90;;;;;;5089038;28;20191;-71
2021/06/11 01:34:37;;;;;;;0.35;0.35;;;17.00;99.90;;;;;;5088971;28;20276;-72
2021/06/11 01:37:09;;;;;;;0.28;0.22;;;16.90;99.90;;;;;;5089100;28;20209;-72
2021/06/11 01:39:38;;;;;;;0.38;0.38;;;16.90;99.90;;;;;;5089045;28;20157;-71
2021/06/11 01:42:04;;;;;;;0.45;0.45;;;16.80;99.90;;;;;;5088708;28;20607;-72
2021/06/11 01:44:32;;;;;;;0.10;0.10;;;16.70;99.90;;;;;;5070899;28;20172;-72
2021/06/11 01:47:00;;;;;;;0.10;0.10;;;16.80;99.90;;;;;;5089038;28;20217;-72
2021/06/11 01:49:28;;;;;;;0.20;0.20;;;16.80;99.90;;;;;;5088965;28;20205;-72
2021/06/11 01:51:57;;;;;;;0.25;0.25;;;16.80;99.90;;;;;;5088854;28;20195;-72
2021/06/11 01:54:24;;;;;;;0.20;0.20;;;16.70;99.90;;;;;;5088832;28;20244;-72
2021/06/11 01:56:52;;;;;;;0.30;0.30;;;16.70;99.90;;;;;;5086013;28;20182;-72
2021/06/11 01:59:18;;;;;;;0.20;0.20;;;16.70;99.90;;;;;;5088303;28;20203;-72
2021/06/11 02:01:46;;;;;;;0.17;0.17;;;16.70;99.90;;;;;;5070758;28;20209;-72
2021/06/11 02:04:13;;;;;;;0.10;0.10;;;16.60;99.90;;;;;;5088829;28;20183;-72
2021/06/11 02:06:41;;;;;;;0.38;0.38;;;16.60;99.90;;;;;;5088723;28;20637;-72
2021/06/11 02:09:09;;;;;;;0.55;0.55;;;16.60;99.90;;;;;;5089768;28;20206;-72
2021/06/11 02:11:40;;;;;;;6.45;0.43;;;16.70;99.90;;;;;;5092454;28;20148;-72
2021/06/11 02:14:13;;;;;;;0.85;0.75;;;16.70;99.90;;;;;;5092417;28;20841;-71
2021/06/11 02:16:41;;;;;;;0.20;0.20;;;16.80;99.90;;;;;;5074379;28;20168;-71
2021/06/11 02:19:07;;;;;;;0.20;0.20;;;16.90;99.90;;;;;;5092293;28;20192;-72
2021/06/11 02:21:34;;;;;;;0.17;0.17;;;16.90;99.90;;;;;;5092301;28;20163;-72
2021/06/11 02:24:01;;;;;;;0.90;0.22;;;16.70;99.90;;;;;;5074237;28;20644;-72
2021/06/11 02:26:28;;;;;;;0.10;0.10;;;16.70;99.90;;;;;;5092183;28;20172;-72
2021/06/11 02:28:54;;;;;;;0.22;0.22;;;16.60;99.90;;;;;;5092080;28;20249;-72
2021/06/11 02:31:21;;;;;;;0.32;0.32;;;16.60;99.90;;;;;;5092155;28;20191;-72
2021/06/11 02:33:47;;;;;;;0.30;0.30;;;16.70;99.90;;;;;;5091720;28;20212;-72
2021/06/11 02:36:14;;;;;;;0.70;0.70;;;16.70;99.90;;;;;;5092044;28;20166;-71
2021/06/11 02:38:40;;;;;;;0.13;0.10;;;16.70;99.90;;;;;;5091928;28;20191;-72
2021/06/11 02:41:08;;;;;;;1.05;0.95;;;16.70;99.90;;;;;;5091691;28;20211;-71
2021/06/11 02:43:39;;;;;;;0.45;0.45;;;16.80;99.90;;;;;;5091748;28;20171;-72
2021/06/11 02:46:12;;;;;;;0.50;0.50;;;16.90;99.90;;;;;;5073757;28;20180;-72
2021/06/11 02:48:54;;;;;;;0.10;0.10;;;16.80;99.90;;;;;;5091762;28;20191;-72
2021/06/11 02:51:36;;;;;;;1.08;0.82;;;16.80;99.90;;;;;;5091633;28;20225;-72
2021/06/11 02:54:03;;;;;;;0.20;0.20;;;16.70;99.90;;;;;;5091567;28;20184;-72
2021/06/11 02:56:53;;;;;;;0.10;0.10;;;16.70;99.90;;;;;;5091562;28;20187;-72
2021/06/11 02:59:26;;;;;;;0.30;0.30;;;16.70;99.90;;;;;;5091378;28;20222;-72
2021/06/11 03:01:58;;;;;;;0.10;0.10;;;16.70;99.90;;;;;;5073361;28;20172;-72
2021/06/11 03:04:28;;;;;;;0.17;0.17;;;16.60;99.90;;;;;;5091518;28;20213;-72
2021/06/11 03:06:56;;;;;;;0.70;0.70;;;16.60;99.90;;;;;;5091500;28;20164;-72
2021/06/11 03:09:25;;;;;;;0.25;0.25;;;16.60;99.90;;;;;;5091145;28;20191;-72
2021/06/11 03:11:56;;;;;;;0.65;0.65;;;16.70;99.90;;;;;;5091260;28;20155;-72
2021/06/11 03:14:24;;;;;;;0.32;0.25;;;16.80;99.90;;;;;;5073216;28;20199;-72
2021/06/11 03:16:55;;;;;;;0.80;0.60;;;16.90;99.90;;;;;;5091120;28;20186;-72
2021/06/11 03:19:25;;;;;;;0.25;0.25;;;16.80;99.90;;;;;;5091008;28;20184;-71
2021/06/11 03:22:10;;;;;;;0.70;0.47;;;16.80;99.90;;;;;;5090128;28;20149;-72
2021/06/11 03:24:56;;;;;;;0.30;0.30;;;16.70;99.90;;;;;;5091106;28;20647;-72
2021/06/11 03:27:30;;;;;;;1.00;0.98;;;16.80;99.90;;;;;;5090996;28;20512;-72
2021/06/11 03:30:09;;;;;;;5.07;2.00;;;16.80;99.90;;;;;;5091035;28;20163;-72
2021/06/11 03:33:02;;;;;;;3.50;0.75;;;16.90;99.90;;;;;;5090884;28;20157;-72
2021/06/11 03:35:33;;;;;;;0.73;0.73;;;16.90;99.90;;;;;;5090958;28;20156;-72
2021/06/11 03:38:03;;;;;;;0.45;0.38;;;17.00;99.90;;;;;;5090859;28;20218;-72
2021/06/11 03:40:34;;;;;;;1.00;0.75;;;17.00;99.90;;;;;;5072344;28;20160;-72
2021/06/11 03:43:01;;;;;;;0.93;0.88;;;17.10;99.90;;;;;;5072641;28;20176;-72
2021/06/11 03:45:29;;;;;;;1.27;1.17;;;17.00;99.90;;;;;;5090770;28;20176;-72
2021/06/11 03:48:00;;;;;;;0.98;0.98;;;17.10;99.90;;;;;;5072484;28;20222;-72
2021/06/11 03:50:27;;;;;;;0.38;0.38;;;17.10;99.90;;;;;;5090265;28;20164;-70
2021/06/11 03:52:59;;;;;;;0.63;0.63;;;17.10;99.90;;;;;;5090432;28;20199;-72
2021/06/11 03:55:33;;;;;;;0.40;0.40;;;17.00;99.90;;;;;;5090360;28;20163;-71
2021/06/11 03:58:08;;;;;;;0.17;0.17;;;17.20;99.90;;;;;;5090370;28;20195;-71
2021/06/11 04:00:36;;;;;;;0.80;0.80;;;17.30;99.90;;;;;;5090168;28;20156;-71
2021/06/11 04:03:04;;;;;;;0.77;0.77;;;17.30;99.90;;;;;;5090156;28;20156;-71
2021/06/11 04:05:30;;;;;;;0.85;0.85;;;17.60;99.90;;;;;;5072188;28;20176;-71
2021/06/11 04:07:57;;;;;;;0.28;0.28;;;18.00;99.90;;;;;;5090048;28;20554;-71
2021/06/11 04:10:50;;;;;;;1.58;0.47;;;18.20;99.90;;;;;;5071635;28;20176;-70
2021/06/11 04:13:22;;;;;;;0.45;0.45;;;18.00;99.90;;;;;;5089883;28;20246;-70
2021/06/11 04:15:53;;;;;;;0.50;0.50;;;17.90;99.90;;;;;;5090001;28;20188;-71
2021/06/11 04:18:24;;;;;;;0.38;0.38;;;18.40;99.90;;;;;;5071589;28;20237;-71
2021/06/11 04:20:54;;;;;;;0.38;0.38;;;18.90;99.90;;;;;;5071827;28;20178;-72
2021/06/11 04:23:26;;;;;;;0.40;0.40;;;19.00;99.90;;;;;;5089507;28;20167;-72
2021/06/11 04:25:54;;;;;;;0.80;0.80;;;18.80;99.90;;;;;;5089614;28;20172;-72
2021/06/11 04:28:23;;;;;;;0.95;0.63;;;18.70;99.90;;;;;;5089216;28;20187;-72
2021/06/11 04:30:52;;;;;;;0.60;0.60;;;18.60;99.90;;;;;;5071311;28;20180;-72
2021/06/11 04:33:22;;;;;;;0.30;0.30;;;18.50;99.90;;;;;;5089310;28;20191;-72
2021/06/11 04:35:48;;;;;;;1.08;0.63;;;18.40;99.90;;;;;;5071515;28;20554;-72
2021/06/11 04:38:15;;;;;;;0.85;0.85;;;18.90;99.90;;;;;;5089274;28;20183;-70
2021/06/11 04:40:41;;;;;;;0.50;0.50;;;19.40;99.90;;;;;;5089094;28;20300;-71
2021/06/11 04:43:07;;;;;;;0.20;0.20;;;19.50;99.90;;;;;;5089468;28;20157;-71
2021/06/11 04:45:34;;;;;;;0.20;0.20;;;19.50;99.90;;;;;;5089305;28;20170;-71
2021/06/11 04:48:00;;;;;;;0.15;0.15;;;19.50;99.90;;;;;;5089319;28;20198;-71
2021/06/11 04:50:27;;;;;;;3.60;0.73;;;19.70;99.90;;;;;;5089278;28;20188;-71
2021/06/11 04:52:53;;;;;;;0.52;0.52;;;20.20;99.90;;;;;;5088697;28;20243;-70
2021/06/11 04:55:19;;;;;;;0.10;0.10;;;20.70;99.90;;;;;;5089320;28;20152;-70
2021/06/11 04:57:45;;;;;;;0.32;0.32;;;21.30;99.90;;;;;;5089177;28;20249;-70
2021/06/11 05:00:12;;;;;;;0.95;0.85;;;21.40;99.90;;;;;;5089214;28;20160;-70
2021/06/11 05:02:38;;;;;;;0.03;0.03;;;21.00;99.90;;;;;;5089023;28;20223;-70
2021/06/11 05:05:05;;;;;;;0.30;0.30;;;21.00;99.90;;;;;;5088935;28;20190;-71
2021/06/11 05:07:31;;;;;;;3.35;0.65;;;21.00;99.90;;;;;;5088992;28;20192;-71
2021/06/11 05:09:57;;;;;;;0.08;0.08;;;21.40;99.90;;;;;;5089078;28;20160;-70
2021/06/11 05:12:22;;;;;;;0.10;0.10;;;22.10;99.90;;;;;;5088917;28;20473;-71
2021/06/11 05:14:48;;;;;;;0.50;0.50;;;22.80;99.90;;;;;;5088897;28;20190;-71
2021/06/11 05:17:14;;;;;;;0.15;0.15;;;23.60;99.90;;;;;;5088773;28;20170;-71
2021/06/11 05:19:41;;;;;;;0.10;0.10;;;23.50;99.90;;;;;;5089028;28;20221;-71
2021/06/11 05:22:07;;;;;;;0.10;0.10;;;23.00;99.90;;;;;;5088736;28;20164;-71
2021/06/11 05:24:33;;;;;;;0.10;0.10;;;22.00;99.90;;;;;;5070562;28;20258;-71
2021/06/11 05:26:59;;;;;;;0.10;0.10;;;21.40;99.90;;;;;;5088515;28;20215;-71
2021/06/11 05:29:24;;;;;;;0.10;0.10;;;20.90;99.90;;;;;;5070857;28;20202;-71
2021/06/11 05:31:50;;;;;;;0.88;0.30;;;20.90;99.90;;;;;;5070514;28;20167;-71
2021/06/11 05:34:16;;;;;;;0.38;0.38;;;20.90;99.90;;;;;;5088324;28;20192;-71
2021/06/11 05:36:42;;;;;;;0.55;0.55;;;21.70;99.90;;;;;;5087701;28;20156;-71
2021/06/11 05:39:08;;;;;;;0.32;0.32;;;21.70;99.90;;;;;;5087995;28;20195;-71
2021/06/11 05:41:34;;;;;;;0.32;0.30;;;21.70;99.90;;;;;;5088303;28;20215;-71
2021/06/11 05:44:00;;;;;;;0.57;0.57;;;21.40;99.90;;;;;;5089612;28;20674;-71
2021/06/11 05:46:26;;;;;;;0.10;0.10;;;21.20;99.90;;;;;;5074463;28;20576;-71
2021/06/11 05:48:52;;;;;;;0.63;0.63;;;21.10;99.90;;;;;;5092672;28;20213;-71
2021/06/11 05:51:18;;;;;;;0.93;0.40;;;21.20;99.90;;;;;;5092645;28;20178;-71
2021/06/11 05:53:44;;;;;;;0.08;0.08;;;21.40;99.90;;;;;;5092441;28;20221;-71
2021/06/11 05:56:10;;;;;;;0.47;0.47;;;21.80;99.90;;;;;;5092670;28;20522;-71
2021/06/11 05:58:36;;;;;;;0.10;0.10;;;22.90;99.90;;;;;;5092518;28;20191;-72
2021/06/11 06:01:03;;;;;;;0.40;0.40;;;24.10;99.90;;;;;;5074205;28;20174;-71
2021/06/11 06:03:30;;;;;;;1.55;0.30;;;24.50;99.90;;;;;;5092307;28;20168;-71
2021/06/11 06:05:56;;;;;;;0.47;0.32;;;25.20;99.90;;;;;;5092089;28;20177;-71
2021/06/11 06:08:22;;;;;;;1.05;0.20;;;26.10;99.90;;;;;;5092069;28;20671;-70
2021/06/11 06:10:47;;;;;;;0.28;0.20;;;26.90;99.90;;;;;;5092137;28;20159;-71
2021/06/11 06:13:14;;;;;;;0.20;0.20;;;24.50;99.90;;;;;;5092035;28;20225;-71
2021/06/11 06:15:40;;;;;;;0.17;0.17;;;23.50;99.90;;;;;;5092071;28;20156;-71
2021/06/11 06:18:07;;;;;;;1.10;0.20;;;23.20;99.90;;;;;;5092187;28;20240;-71
2021/06/11 06:20:33;;;;;;;6.43;0.82;;;24.60;99.90;;;;;;5092086;28;20152;-71
2021/06/11 06:22:59;;;;;;;0.38;0.38;;;24.90;99.90;;;;;;5091865;28;20235;-70
2021/06/11 06:25:25;;;;;;;2.90;0.52;;;25.50;99.90;;;;;;5091916;28;20168;-71
2021/06/11 06:27:51;;;;;;;0.73;0.57;;;25.50;99.90;;;;;;5091741;28;20195;-71
2021/06/11 06:30:18;;;;;;;0.17;0.17;;;26.20;99.90;;;;;;5091713;28;20156;-71
2021/06/11 06:32:44;;;;;;;0.40;0.40;;;26.30;99.90;;;;;;5091398;28;20178;-71
2021/06/11 06:35:11;;;;;;;0.68;0.40;;;25.60;99.90;;;;;;5091639;28;20220;-71
2021/06/11 06:37:38;;;;;;;16.55;0.55;;;25.30;99.90;;;;;;5091513;28;20238;-71
2021/06/11 06:40:07;;;;;;;0.47;0.40;;;25.00;99.90;;;;;;5091549;28;20167;-71
2021/06/11 06:42:33;;;;;;;0.17;0.17;;;26.10;99.90;;;;;;5091462;28;20215;-70
2021/06/11 06:44:59;;;;;;;0.20;0.20;;;26.60;99.90;;;;;;5091419;28;20144;-71
2021/06/11 06:47:25;;;;;;;1.55;1.17;;;26.10;99.90;;;;;;5072974;28;20559;-72
2021/06/11 06:49:51;;;;;;;0.25;0.25;;;24.70;99.90;;;;;;5072653;28;20271;-72
2021/06/11 06:52:18;;;;;;;0.40;0.40;;;24.60;99.90;;;;;;5073159;28;20174;-72
2021/06/11 06:54:44;;;;;;;0.10;0.10;;;24.60;99.90;;;;;;5091112;28;20195;-72
2021/06/11 06:57:11;;;;;;;0.28;0.28;;;24.60;99.90;;;;;;5072536;28;20172;-69
2021/06/11 06:59:37;;;;;;;0.43;0.43;;;26.10;99.90;;;;;;5091368;28;20187;-68
2021/06/11 07:02:04;;;;;;;0.20;0.20;;;27.00;99.90;;;;;;5073238;28;20171;-69
2021/06/11 07:04:30;;;;;;;0.20;0.20;;;27.00;99.90;;;;;;5091275;28;20165;-69
2021/06/11 07:06:56;;;;;;;0.20;0.20;;;27.00;99.90;;;;;;5091401;28;20186;-68
2021/06/11 07:09:22;;;;;;;0.75;0.70;;;26.50;99.90;;;;;;5091279;28;20191;-69
2021/06/11 07:11:48;;;;;;;0.32;0.32;;;25.10;99.90;;;;;;5090648;28;20166;-68
2021/06/11 07:14:16;;;;;;;0.30;0.30;;;25.60;99.90;;;;;;5091226;28;20184;-69
2021/06/11 07:16:43;;;;;;;2.20;0.90;;;25.50;99.90;;;;;;5091053;28;20152;-69
2021/06/11 07:19:09;;;;;;;0.22;0.22;;;25.00;99.90;;;;;;5090968;28;20187;-69
2021/06/11 07:21:35;;;;;;;0.38;0.38;;;26.10;99.90;;;;;;5090689;28;20177;-69
2021/06/11 07:24:01;;;;;;;0.10;0.10;;;25.40;99.90;;;;;;5094326;28;20187;-69
2021/06/11 07:26:27;;;;;;;0.20;0.20;;;24.30;99.90;;;;;;5108868;28;20517;-69
2021/06/11 07:28:53;;;;;;;0.38;0.38;;;23.90;99.90;;;;;;5092711;28;20284;-69
2021/06/11 07:31:20;;;;;;;0.40;0.40;;;23.60;99.90;;;;;;5110605;28;20163;-69
2021/06/11 07:33:46;;;;;;;0.10;0.10;;;23.50;99.90;;;;;;5110665;28;20212;-69
2021/06/11 07:36:13;;;;;;;10.32;0.57;;;23.80;99.90;;;;;;5109904;28;20151;-69
2021/06/11 07:38:39;;;;;;;0.52;0.52;;;23.60;99.90;;;;;;5110670;28;20186;-69
2021/06/11 07:41:05;;;;;;;0.50;0.50;;;23.80;99.90;;;;;;5089183;28;20364;-69
2021/06/11 07:43:31;;;;;;;0.40;0.40;;;23.50;99.90;;;;;;5088907;28;20187;-69
2021/06/11 07:45:57;;;;;;;0.17;0.17;;;23.70;99.90;;;;;;5088130;28;20183;-68
2021/06/11 07:48:23;;;;;;;0.22;0.22;;;23.60;99.90;;;;;;5089764;28;20260;-69
2021/06/11 07:50:50;;;;;;;0.20;0.20;;;23.70;99.90;;;;;;5068900;28;20202;-69
2021/06/11 07:53:16;;;;;;;0.38;0.35;;;23.60;99.90;;;;;;5068522;28;20285;-68
2021/06/11 07:55:42;;;;;;;0.20;0.20;;;23.80;99.90;;;;;;5068315;28;20168;-69
2021/06/11 07:58:08;;;;;;;0.28;0.28;;;24.60;99.90;;;;;;5069285;28;20183;-68
2021/06/11 08:00:34;;;;;;;0.82;0.82;;;26.20;99.90;;;;;;5069903;28;20165;-69
2021/06/11 08:03:01;;;;;;;0.30;0.30;;;27.70;99.90;;;;;;5069908;28;20164;-69
2021/06/11 08:05:28;;;;;;;3.10;0.88;;;29.10;99.90;;;;;;5069888;28;20156;-69
2021/06/11 08:07:55;;;;;;;0.20;0.20;;;30.40;99.90;;;;;;5068484;28;20160;-69
2021/06/11 08:10:23;;;;;;;4.00;0.70;;;29.90;99.90;;;;;;5069751;28;20176;-69
2021/06/11 08:12:49;;;;;;;0.25;0.25;;;30.20;99.90;;;;;;5068398;28;20172;-69
2021/06/11 08:15:15;;;;;;;0.20;0.20;;;28.50;99.90;;;;;;5069457;28;20164;-69
2021/06/11 08:17:40;;;;;;;0.40;0.30;;;28.50;99.90;;;;;;5068654;28;20156;-69
2021/06/11 08:20:09;;;;;;;1.20;0.65;;;29.60;99.90;;;;;;5069538;28;20184;-70
2021/06/11 08:22:36;;;;;;;0.57;0.52;;;29.60;99.90;;;;;;5069813;28;20560;-69
2021/06/11 08:25:07;;;;;;;0.43;0.43;;;29.70;99.90;;;;;;5089760;28;20151;-69
2021/06/11 08:27:33;;;;;;;0.47;0.47;;;30.40;99.90;;;;;;5088691;28;20163;-69
2021/06/11 08:29:59;;;;;;;0.30;0.30;;;28.70;99.90;;;;;;5089143;28;20190;-69
2021/06/11 08:32:26;;;;;;;0.52;0.52;;;26.30;99.90;;;;;;5089405;28;20155;-71
2021/06/11 08:34:51;;;;;;;1.17;0.40;;;26.50;99.90;;;;;;5089233;28;20676;-71
2021/06/11 08:37:20;;;;;;;0.47;0.47;;;26.70;99.90;;;;;;5089168;28;20205;-71
2021/06/11 08:39:52;;;;;;;0.20;0.20;;;26.70;99.90;;;;;;5088410;28;20267;-71
2021/06/11 08:42:24;;;;;;;0.30;0.30;;;28.60;99.90;;;;;;5105775;28;20236;-71
2021/06/11 08:44:51;;;;;;;0.90;0.85;;;30.90;99.90;;;;;;5109795;28;20147;-71
2021/06/11 08:47:17;;;;;;;0.57;0.57;;;31.70;99.90;;;;;;5091187;28;20237;-71
2021/06/11 08:49:43;;;;;;;1.20;0.60;;;31.80;99.90;;;;;;5104230;28;20261;-71
2021/06/11 08:52:09;;;;;;;0.30;0.30;;;31.70;99.90;;;;;;5070024;28;20180;-72
2021/06/11 08:54:35;;;;;;;1.33;0.77;;;30.40;99.90;;;;;;5067391;28;20276;-72
2021/06/11 08:57:03;;;;;;;0.30;0.30;;;29.70;99.90;;;;;;5080261;28;20611;-72
2021/06/11 08:59:29;;;;;;;0.32;0.32;;;30.20;99.90;;;;;;5068091;28;20268;-71
2021/06/11 09:01:55;;;;;;;0.40;0.40;;;31.70;99.90;;;;;;5080889;28;20175;-72
2021/06/11 09:04:51;;;;;;;2.47;0.60;;;33.70;99.90;;;;;;5088771;28;20163;-72
2021/06/11 09:07:34;;;;;;;1.15;0.38;;;33.90;99.90;;;;;;5088919;28;20262;-71
2021/06/11 09:10:07;;;;;;;0.85;0.65;;;33.50;99.90;;;;;;5087543;28;20194;-72
2021/06/11 09:12:41;;;;;;;0.55;0.55;;;34.20;99.90;;;;;;5088437;28;20168;-72
2021/06/11 09:15:12;;;;;;;1.35;1.02;;;33.50;99.90;;;;;;5089088;28;20175;-72
2021/06/11 09:17:39;;;;;;;0.45;0.45;;;35.10;99.90;;;;;;5088829;28;20155;-72
2021/06/11 09:20:17;;;;;;;1.40;0.90;;;32.30;99.90;;;;;;5087316;28;20202;-72
2021/06/11 09:22:46;;;;;;;0.55;0.55;;;32.50;99.80;;;;;;5088647;28;20164;-72
2021/06/11 09:25:45;;;;;;;0.75;0.50;;;32.00;99.90;;;;;;5088649;28;20163;-71
2021/06/11 09:28:22;;;;;;;0.43;0.43;;;33.90;99.30;;;;;;5070065;28;20654;-71
2021/06/11 09:30:52;;;;;;;0.45;0.45;;;31.90;99.10;;;;;;5087939;28;20206;-71
2021/06/11 09:33:21;;;;;;;0.50;0.43;;;31.00;99.90;;;;;;5088440;28;20191;-71
2021/06/11 09:35:50;;;;;;;0.85;0.55;;;29.30;99.90;;;;;;5088719;28;20148;-71
2021/06/11 09:38:29;;;;;;;0.82;0.82;;;27.50;99.90;;;;;;5088433;28;20195;-71
2021/06/11 09:40:57;;;;;;;0.22;0.22;;;27.50;99.90;;;;;;5087740;28;20249;-71
2021/06/11 09:43:25;;;;;;;0.55;0.55;;;27.60;99.90;;;;;;5088444;28;20183;-71
2021/06/11 09:46:13;;;;;;;2.15;0.73;;;27.50;99.90;;;;;;5088172;28;20185;-71
2021/06/11 09:48:45;;;;;;;0.25;0.25;;;26.30;99.90;;;;;;5088257;28;20198;-71
2021/06/11 09:51:19;;;;;;;1.15;0.57;;;26.60;99.90;;;;;;5087703;28;20398;-71
2021/06/11 09:53:46;;;;;;;0.85;0.47;;;28.50;99.90;;;;;;5087524;28;20190;-71
2021/06/11 09:56:22;;;;;;;0.38;0.38;;;29.50;99.90;;;;;;5088356;28;20175;-71
2021/06/11 09:58:48;;;;;;;0.90;0.45;;;29.80;99.90;;;;;;5088286;28;20198;-71
2021/06/11 10:01:15;;;;;;;0.47;0.47;;;29.60;99.90;;;;;;5095484;28;20170;-71
2021/06/11 10:03:45;;;;;;;2.30;0.68;;;31.10;99.90;;;;;;5107553;28;20181;-71
2021/06/11 10:06:13;;;;;;;1.00;0.40;;;30.30;99.90;;;;;;5108593;28;20219;-72
2021/06/11 10:08:42;;;;;;;0.10;0.10;;;30.90;99.90;;;;;;5090452;28;20625;-72
2021/06/11 10:11:12;;;;;;;0.90;0.90;;;31.70;99.90;;;;;;5108391;28;20158;-72
2021/06/11 10:13:40;;;;;;;1.25;1.05;;;32.50;99.90;;;;;;5107712;28;20213;-72
2021/06/11 10:16:11;;;;;;;0.28;0.28;;;33.80;99.90;;;;;;5108285;28;20171;-72
2021/06/11 10:18:38;;;;;;;1.90;0.75;;;33.50;99.80;;;;;;5090062;28;20258;-73
2021/06/11 10:21:05;;;;;;;0.47;0.45;;;31.30;99.90;;;;;;5108151;28;20184;-72
2021/06/11 10:23:32;;;;;;;0.57;0.50;;;29.40;99.90;;;;;;5107351;28;20182;-72
2021/06/11 10:26:01;;;;;;;0.60;0.60;;;28.50;99.90;;;;;;5108547;28;20155;-72
2021/06/11 10:28:36;;;;;;;0.73;0.52;;;29.70;99.90;;;;;;5108339;28;20270;-72
2021/06/11 10:31:08;;;;;;;0.35;0.35;;;31.40;99.90;;;;;;5110694;28;20180;-71
2021/06/11 10:33:50;;;;;;;2.08;0.65;;;32.50;99.90;;;;;;5110633;28;20183;-72
2021/06/11 10:39:22;;;;;;;0.30;0.28;;;32.40;99.70;;;;;;5111754;28;20214;-72
2021/06/11 10:42:01;;;;;;;0.40;0.40;;;31.90;99.90;;;;;;5101034;28;20248;-72
2021/06/11 10:44:48;;;;;;;0.52;0.52;;;31.80;99.90;;;;;;5110923;28;20159;-72
2021/06/11 10:47:17;;;;;;;0.68;0.68;;;31.90;99.90;;;;;;5111330;28;20234;-72
2021/06/11 10:49:58;;;;;;;0.43;0.30;;;32.00;99.90;;;;;;5111627;28;20190;-70
2021/06/11 10:52:47;;;;;;;0.47;0.47;;;32.20;99.90;;;;;;5093426;28;20178;-72
2021/06/11 10:55:19;;;;;;;0.65;0.52;;;31.70;99.90;;;;;;5110545;28;20201;-72
2021/06/11 10:57:58;;;;;;;0.60;0.35;;;30.40;99.90;;;;;;5093090;28;20167;-71
2021/06/11 11:00:31;;;;;;;0.40;0.40;;;31.10;99.90;;;;;;5090915;28;20233;-71
2021/06/11 11:03:00;;;;;;;0.75;0.50;;;30.40;99.90;;;;;;5110995;28;20180;-71
2021/06/11 11:05:30;;;;;;;0.43;0.43;;;30.00;99.90;;;;;;5110045;28;20170;-72
2021/06/11 11:07:57;;;;;;;0.75;0.70;;;29.20;99.90;;;;;;5110873;28;20159;-72
2021/06/11 11:10:39;;;;;;;0.30;0.30;;;27.10;99.90;;;;;;5110811;28;20155;-72
2021/06/11 11:13:10;;;;;;;1.25;1.10;;;26.80;99.90;;;;;;5110516;28;20195;-72
2021/06/11 11:15:44;;;;;;;1.10;1.08;;;26.10;99.90;;;;;;5109896;28;20571;-71
2021/06/11 11:18:32;;;;;;;0.63;0.55;;;25.60;99.90;;;;;;5092314;28;20224;-71
2021/06/11 11:20:58;;;;;;;0.30;0.30;;;24.80;99.90;;;;;;5110504;28;20158;-71
2021/06/11 11:23:26;;;;;;;0.25;0.25;;;23.40;99.90;;;;;;5092476;28;20178;-71
2021/06/11 11:25:53;;;;;;;0.20;0.20;;;22.60;99.90;;;;;;5110780;28;20222;-71
2021/06/11 11:28:19;;;;;;;0.32;0.32;;;22.10;99.90;;;;;;5092540;28;20241;-71
2021/06/11 11:30:47;;;;;;;0.20;0.20;;;21.80;99.90;;;;;;5092655;28;20238;-71
2021/06/11 11:33:15;;;;;;;0.35;0.30;;;21.90;99.90;;;;;;5110818;28;20190;-71
2021/06/11 11:35:44;;;;;;;0.13;0.13;;;23.00;99.90;;;;;;5110709;28;20177;-71
2021/06/11 11:38:11;;;;;;;0.30;0.30;;;24.20;99.90;;;;;;5110636;28;20192;-72
2021/06/11 11:40:40;;;;;;;1.40;1.30;;;25.10;99.90;;;;;;5110487;28;20162;-72
2021/06/11 11:43:06;;;;;;;0.10;0.10;;;25.70;99.90;;;;;;5110110;28;20158;-71
2021/06/11 11:45:34;;;;;;;0.80;0.80;;;25.50;99.90;;;;;;5110385;28;20188;-71
2021/06/11 11:48:03;;;;;;;0.47;0.38;;;25.50;99.90;;;;;;5110567;28;20159;-71
2021/06/11 11:50:31;;;;;;;0.50;0.50;;;25.90;99.90;;;;;;5091969;28;20181;-72
2021/06/11 11:52:57;;;;;;;1.27;0.80;;;26.10;99.90;;;;;;5109712;28;20238;-72
2021/06/11 11:55:24;;;;;;;1.38;1.13;;;26.20;99.90;;;;;;5091045;28;20170;-72
2021/06/11 11:57:50;;;;;;;0.35;0.35;;;26.10;99.90;;;;;;5068383;28;20251;-72
2021/06/11 12:00:17;;;;;;;2.08;0.82;;;25.50;99.90;;;;;;5084701;28;20584;-72
2021/06/11 12:02:45;;;;;;;0.35;0.35;;;24.70;99.90;;;;;;5071808;28;20195;-71
2021/06/11 12:05:12;;;;;;;0.85;0.85;;;24.10;99.90;;;;;;5089923;28;20624;-71
2021/06/11 12:07:40;;;;;;;0.32;0.32;;;24.00;99.90;;;;;;5089963;28;20152;-72
2021/06/11 12:10:06;;;;;;;0.43;0.43;;;24.10;99.90;;;;;;5071829;28;20179;-71
2021/06/11 12:12:32;;;;;;;0.50;0.45;;;23.90;99.90;;;;;;5093319;28;20339;-71
2021/06/11 12:14:58;;;;;;;0.85;0.68;;;23.90;99.90;;;;;;5110117;28;20190;-72
2021/06/11 12:17:24;;;;;;;2.00;0.98;;;23.50;99.90;;;;;;5091719;28;20208;-71
2021/06/11 12:19:51;;;;;;;0.85;0.40;;;23.50;99.90;;;;;;5110035;28;20147;-71
2021/06/11 12:22:17;;;;;;;0.88;0.88;;;23.40;99.90;;;;;;5109811;28;20195;-71
2021/06/11 12:24:43;;;;;;;2.72;1.75;;;23.30;99.90;;;;;;5091716;28;20194;-71
2021/06/11 12:27:10;;;;;;;0.55;0.55;;;23.10;99.90;;;;;;5101926;28;20179;-71
2021/06/11 12:29:36;;;;;;;0.30;0.30;;;23.30;99.90;;;;;;5071327;28;20175;-71
2021/06/11 12:32:03;;;;;;;0.20;0.20;;;23.60;99.90;;;;;;5089446;28;20650;-72
2021/06/11 12:34:30;;;;;;;1.08;0.98;;;23.50;99.90;;;;;;5089253;28;20194;-72
2021/06/11 12:36:56;;;;;;;6.13;1.23;;;23.40;99.90;;;;;;5071312;28;20183;-71
2021/06/11 12:39:22;;;;;;;0.43;0.43;;;23.30;99.90;;;;;;5088343;28;20156;-71
2021/06/11 12:41:54;;;;;;;0.17;0.17;;;23.20;99.90;;;;;;5088844;28;20633;-71
2021/06/11 12:44:20;;;;;;;0.73;0.47;;;23.10;99.90;;;;;;5088846;28;20151;-71
2021/06/11 12:46:49;;;;;;;1.10;0.73;;;23.10;99.90;;;;;;5088694;28;20160;-72
2021/06/11 12:49:15;;;;;;;1.02;0.93;;;23.10;99.90;;;;;;5105613;28;20611;-72
2021/06/11 12:51:42;;;;;;;0.13;0.13;;;23.50;99.90;;;;;;5091245;28;20199;-72
2021/06/11 12:54:10;;;;;;;0.52;0.47;;;23.60;99.90;;;;;;5109457;28;20690;-72
2021/06/11 12:56:37;;;;;;;0.20;0.20;;;23.80;99.90;;;;;;5101199;28;20166;-72
2021/06/11 12:59:04;;;;;;;0.52;0.52;;;24.20;99.90;;;;;;5096320;28;20192;-72